Time;durP1;ratioP1;P1;durP2;ratioP2;P2;SDS_P1;SDS_P2;PMS_P1;PMS_P2;Temp;Humidity;BMP_temperature;BMP_pressure;BME280_temperature;BME280_humidity;BME280_pressure;Samples;Min_cycle;Max_cycle;Signal;HPM_P1;HPM_P2
2022/07/17 00:00:30;;;;;;;;;;;;;;;15.93;45.53809;102845.3;;;;-82
2022/07/17 00:05:27;;;;;;;;;;;;;;;15.89;45.6123;102843.5;;;;-82
2022/07/17 00:10:31;;;;;;;;;;;;;;;15.84;45.7207;102838.7;;;;-80
2022/07/17 00:15:30;;;;;;;;;;;;;;;15.77;45.93945;102825.1;;;;-82
2022/07/17 00:19:20;;;;;;;3.2;1.2;;;;;;;;;;;;;-80
2022/07/17 00:20:33;;;;;;;;;;;;;;;15.7;46.03516;102828;;;;-81
2022/07/17 00:25:32;;;;;;;;;;;;;;;15.67;46.11035;102827.6;;;;-80
2022/07/17 00:30:28;;;;;;;;;;;;;;;15.62;46.37598;102823.6;;;;-80
2022/07/17 00:35:27;;;;;;;;;;;;;;;15.56;46.23535;102835.9;;;;-80
2022/07/17 00:40:27;;;;;;;;;;;;;;;15.53;46.35645;102837.8;;;;-81
2022/07/17 00:45:26;;;;;;;;;;;;;;;15.47;46.47363;102833.9;;;;-79
2022/07/17 00:49:20;;;;;;;2.8;1.3;;;;;;;;;;;;;-80
2022/07/17 00:50:26;;;;;;;;;;;;;;;15.41;46.47949;102827.9;;;;-81
2022/07/17 00:55:29;;;;;;;;;;;;;;;15.35;46.56348;102827.6;;;;-81
2022/07/17 01:00:27;;;;;;;;;;;;;;;15.31;46.68359;102818.3;;;;-80
2022/07/17 01:05:33;;;;;;;;;;;;;;;15.27;46.63379;102811.4;;;;-82
2022/07/17 01:10:28;;;;;;;;;;;;;;;15.22;46.81934;102813.8;;;;-81
2022/07/17 01:15:27;;;;;;;;;;;;;;;15.21;46.62793;102809.9;;;;-81
2022/07/17 01:19:21;;;;;;;3;1.2;;;;;;;;;;;;;-81
2022/07/17 01:20:27;;;;;;;;;;;;;;;15.16;46.8252;102802.4;;;;-80
2022/07/17 01:25:26;;;;;;;;;;;;;;;15.09;46.78418;102798.7;;;;-81
2022/07/17 01:30:30;;;;;;;;;;;;;;;15.08;46.61328;102806.8;;;;-81
2022/07/17 01:35:26;;;;;;;;;;;;;;;15.02;46.7207;102803.7;;;;-82
2022/07/17 01:40:26;;;;;;;;;;;;;;;14.95;46.61133;102808;;;;-80
2022/07/17 01:45:29;;;;;;;;;;;;;;;14.91;46.69727;102809.9;;;;-81
2022/07/17 01:49:25;;;;;;;2.7;1.1;;;;;;;;;;;;;-80
2022/07/17 01:50:29;;;;;;;;;;;;;;;14.84;46.70117;102803.2;;;;-81
2022/07/17 01:55:34;;;;;;;;;;;;;;;14.81;46.77734;102808.1;;;;-81
2022/07/17 02:00:31;;;;;;;;;;;;;;;14.76;46.88379;102813.6;;;;-81
2022/07/17 02:05:29;;;;;;;;;;;;;;;14.73;46.89258;102813.5;;;;-80
2022/07/17 02:10:30;;;;;;;;;;;;;;;14.7;46.94531;102818.8;;;;-81
2022/07/17 02:15:34;;;;;;;;;;;;;;;14.64;47.05176;102814.9;;;;-81
2022/07/17 02:19:31;;;;;;;2.8;1.2;;;;;;;;;;;;;-81
2022/07/17 02:20:34;;;;;;;;;;;;;;;14.61;47.08203;102816.1;;;;-80
2022/07/17 02:25:29;;;;;;;;;;;;;;;14.56;47.13477;102812.4;;;;-80
2022/07/17 02:30:26;;;;;;;;;;;;;;;14.53;47.00684;102814.2;;;;-80
2022/07/17 02:35:27;;;;;;;;;;;;;;;14.5;47.07129;102810.9;;;;-81
2022/07/17 02:40:32;;;;;;;;;;;;;;;14.46;47.10059;102811.6;;;;-81
2022/07/17 02:45:28;;;;;;;;;;;;;;;14.42;47.18652;102820.9;;;;-81
2022/07/17 02:49:28;;;;;;;3.7;1.3;;;;;;;;;;;;;-81
2022/07/17 02:50:27;;;;;;;;;;;;;;;14.43;47.26758;102833.4;;;;-80
2022/07/17 02:55:26;;;;;;;;;;;;;;;14.43;47.35742;102828.7;;;;-80
2022/07/17 03:00:33;;;;;;;;;;;;;;;14.42;47.45703;102826.9;;;;-82
2022/07/17 03:05:28;;;;;;;;;;;;;;;14.42;47.5918;102821.4;;;;-79
2022/07/17 03:10:27;;;;;;;;;;;;;;;14.43;47.59277;102814.3;;;;-79
2022/07/17 03:15:27;;;;;;;;;;;;;;;14.48;47.41895;102817.7;;;;-81
2022/07/17 03:19:28;;;;;;;2.6;1.2;;;;;;;;;;;;;-81
2022/07/17 03:20:26;;;;;;;;;;;;;;;14.51;47.43359;102818;;;;-80
2022/07/17 03:25:27;;;;;;;;;;;;;;;14.53;47.31055;102817.6;;;;-81
2022/07/17 03:30:26;;;;;;;;;;;;;;;14.54;47.13086;102819.2;;;;-82
2022/07/17 03:35:28;;;;;;;;;;;;;;;14.57;47.11133;102823.4;;;;-81
2022/07/17 03:40:27;;;;;;;;;;;;;;;14.57;47.10059;102831.3;;;;-82
2022/07/17 03:45:36;;;;;;;;;;;;;;;14.58;47.13672;102836.9;;;;-81
2022/07/17 03:49:32;;;;;;;5.2;1.2;;;;;;;;;;;;;-79
2022/07/17 03:50:29;;;;;;;;;;;;;;;14.55;47.2334;102827.9;;;;-80
2022/07/17 03:55:27;;;;;;;;;;;;;;;14.52;47.37793;102827.8;;;;-82
2022/07/17 04:00:32;;;;;;;;;;;;;;;14.52;47.27637;102836.3;;;;-82
2022/07/17 04:05:32;;;;;;;;;;;;;;;14.49;47.42969;102827;;;;-81
2022/07/17 04:10:30;;;;;;;;;;;;;;;14.42;47.60352;102834.3;;;;-81
2022/07/17 04:19:34;;;;;;;2.5;1;;;;;;;;;;;;;-79
2022/07/17 04:20:28;;;;;;;;;;;;;;;14.4;47.66797;102844.4;;;;-81
2022/07/17 04:25:27;;;;;;;;;;;;;;;14.39;47.72461;102829.9;;;;-81
2022/07/17 04:30:28;;;;;;;;;;;;;;;14.39;48.23047;102830.9;;;;-81
2022/07/17 04:35:27;;;;;;;;;;;;;;;14.41;48.39063;102843.1;;;;-82
2022/07/17 04:40:27;;;;;;;;;;;;;;;14.43;48.15625;102835.5;;;;-82
2022/07/17 04:45:27;;;;;;;;;;;;;;;14.5;48.25488;102828.1;;;;-81
2022/07/17 04:49:33;;;;;;;2.7;1.1;;;;;;;;;;;;;-80
2022/07/17 04:50:27;;;;;;;;;;;;;;;14.58;48.625;102822;;;;-79
2022/07/17 04:55:27;;;;;;;;;;;;;;;14.67;49.50195;102805;;;;-80
2022/07/17 05:00:27;;;;;;;;;;;;;;;14.8;49.68555;102809.4;;;;-80
2022/07/17 05:05:28;;;;;;;;;;;;;;;14.95;50.08691;102833;;;;-81
2022/07/17 05:10:32;;;;;;;;;;;;;;;15.08;49.22168;102821.8;;;;-78
2022/07/17 05:15:26;;;;;;;;;;;;;;;15.2;49.4043;102831.2;;;;-81
2022/07/17 05:19:35;;;;;;;3.1;0.8;;;;;;;;;;;;;-81
2022/07/17 05:20:26;;;;;;;;;;;;;;;15.3;49.38184;102836.9;;;;-80
2022/07/17 05:25:27;;;;;;;;;;;;;;;15.38;49.33301;102844.4;;;;-82
2022/07/17 05:30:28;;;;;;;;;;;;;;;15.45;49.375;102845.4;;;;-80
2022/07/17 05:35:26;;;;;;;;;;;;;;;15.49;49.09668;102845.7;;;;-79
2022/07/17 05:40:28;;;;;;;;;;;;;;;15.53;49.02441;102848;;;;-80
2022/07/17 05:45:29;;;;;;;;;;;;;;;15.68;48.73535;102867.1;;;;-79
2022/07/17 05:49:38;;;;;;;2.9;0.8;;;;;;;;;;;;;-82
2022/07/17 05:50:27;;;;;;;;;;;;;;;16.35;48.60449;102883.8;;;;-82
2022/07/17 05:55:26;;;;;;;;;;;;;;;17.25;46.87793;102885.3;;;;-81
2022/07/17 06:00:29;;;;;;;;;;;;;;;18.08;45.10059;102888;;;;-81
2022/07/17 06:05:27;;;;;;;;;;;;;;;18.84;43.65039;102892.8;;;;-82
2022/07/17 06:10:27;;;;;;;;;;;;;;;19.52;42.74707;102893.5;;;;-82
2022/07/17 06:15:26;;;;;;;;;;;;;;;20.14;41.86914;102896.7;;;;-82
2022/07/17 06:19:41;;;;;;;1.6;0.7;;;;;;;;;;;;;-81
2022/07/17 06:20:26;;;;;;;;;;;;;;;20.71;41.09668;102894.7;;;;-79
2022/07/17 06:25:27;;;;;;;;;;;;;;;21.28;40.53125;102901.6;;;;-80
2022/07/17 06:30:27;;;;;;;;;;;;;;;21.68;40.17676;102887.8;;;;-80
2022/07/17 06:35:33;;;;;;;;;;;;;;;22.05;39.76172;102882.8;;;;-80
2022/07/17 06:40:29;;;;;;;;;;;;;;;22.44;39.34766;102889;;;;-80
2022/07/17 06:45:27;;;;;;;;;;;;;;;22.82;39.04785;102881.3;;;;-81
2022/07/17 06:49:40;;;;;;;2.5;0.7;;;;;;;;;;;;;-80
2022/07/17 06:50:26;;;;;;;;;;;;;;;23.23;38.65625;102878.1;;;;-81
2022/07/17 06:55:27;;;;;;;;;;;;;;;23.68;38.07227;102877;;;;-82
2022/07/17 07:00:26;;;;;;;;;;;;;;;24.14;37.64844;102876;;;;-82
2022/07/17 07:05:28;;;;;;;;;;;;;;;24.48;37.36621;102875.7;;;;-82
2022/07/17 07:10:27;;;;;;;;;;;;;;;24.77;37.11133;102880.5;;;;-79
2022/07/17 07:15:27;;;;;;;;;;;;;;;25.09;36.79004;102879.1;;;;-80
2022/07/17 07:19:44;;;;;;;4;1;;;;;;;;;;;;;-80
2022/07/17 07:20:27;;;;;;;;;;;;;;;25.41;36.3291;102881.1;;;;-81
2022/07/17 07:25:30;;;;;;;;;;;;;;;25.66;36.00098;102880.1;;;;-81
2022/07/17 07:30:27;;;;;;;;;;;;;;;25.92;35.86035;102876.1;;;;-80
2022/07/17 07:35:29;;;;;;;;;;;;;;;26.14;35.21582;102879.9;;;;-82
2022/07/17 07:40:27;;;;;;;;;;;;;;;26.34;35.18457;102874.5;;;;-82
2022/07/17 07:45:29;;;;;;;;;;;;;;;26.57;34.94727;102865.4;;;;-80
2022/07/17 07:49:48;;;;;;;2.9;0.7;;;;;;;;;;;;;-81
2022/07/17 07:50:28;;;;;;;;;;;;;;;26.77;34.47363;102866.5;;;;-81
2022/07/17 07:55:34;;;;;;;;;;;;;;;26.98;34.48926;102862.2;;;;-80
2022/07/17 08:00:27;;;;;;;;;;;;;;;27.19;34.06348;102862.5;;;;-80
2022/07/17 08:05:30;;;;;;;;;;;;;;;27.35;33.87695;102868.8;;;;-82
2022/07/17 08:10:29;;;;;;;;;;;;;;;27.46;33.70996;102862;;;;-83
2022/07/17 08:15:28;;;;;;;;;;;;;;;27.55;33.60059;102859.4;;;;-81
2022/07/17 08:19:54;;;;;;;3.3;0.7;;;;;;;;;;;;;-81
2022/07/17 08:20:29;;;;;;;;;;;;;;;27.75;33.31152;102866.8;;;;-80
2022/07/17 08:25:26;;;;;;;;;;;;;;;27.91;33.30176;102873;;;;-82
2022/07/17 08:30:34;;;;;;;;;;;;;;;28.1;32.92969;102874.8;;;;-81
2022/07/17 08:35:26;;;;;;;;;;;;;;;28.26;32.67285;102875.8;;;;-83
2022/07/17 08:40:36;;;;;;;;;;;;;;;28.51;32.43359;102869.8;;;;-82
2022/07/17 08:45:36;;;;;;;;;;;;;;;28.73;32.30859;102865.8;;;;-82
2022/07/17 08:49:57;;;;;;;2.8;0.7;;;;;;;;;;;;;-81
2022/07/17 08:50:35;;;;;;;;;;;;;;;28.95;31.90332;102870.5;;;;-82
2022/07/17 08:55:29;;;;;;;;;;;;;;;29.15;31.54199;102870.7;;;;-81
2022/07/17 09:00:30;;;;;;;;;;;;;;;29.38;31.11328;102869.4;;;;-82
2022/07/17 09:05:32;;;;;;;;;;;;;;;29.59;30.8584;102862.7;;;;-84
2022/07/17 09:10:43;;;;;;;;;;;;;;;29.8;30.6377;102856;;;;-80
2022/07/17 09:15:28;;;;;;;;;;;;;;;30.04;30.2793;102853.5;;;;-81
2022/07/17 09:20:00;;;;;;;2.5;0.9;;;;;;;;;;;;;-81
2022/07/17 09:20:28;;;;;;;;;;;;;;;30.24;29.76367;102855.5;;;;-82
2022/07/17 09:25:37;;;;;;;;;;;;;;;30.4;29.61035;102867;;;;-81
2022/07/17 09:30:26;;;;;;;;;;;;;;;30.7;29.41797;102860.2;;;;-82
2022/07/17 09:35:27;;;;;;;;;;;;;;;31.03;29.0752;102863.9;;;;-83
2022/07/17 09:45:27;;;;;;;;;;;;;;;31.49;28.44434;102869;;;;-81
2022/07/17 09:50:08;;;;;;;2.5;0.7;;;;;;;;;;;;;-82
2022/07/17 09:50:32;;;;;;;;;;;;;;;31.74;28.50684;102862.3;;;;-81
2022/07/17 10:00:37;;;;;;;;;;;;;;;32.2;27.91113;102851.5;;;;-81
2022/07/17 10:05:37;;;;;;;;;;;;;;;32.49;27.52734;102847.4;;;;-82
2022/07/17 10:10:27;;;;;;;;;;;;;;;32.85;27.5957;102851.9;;;;-82
2022/07/17 10:15:31;;;;;;;;;;;;;;;33.07;26.8291;102862.5;;;;-81
2022/07/17 10:20:11;;;;;;;1.9;0.7;;;;;;;;;;;;;-81
2022/07/17 10:20:36;;;;;;;;;;;;;;;33.3;26.66504;102852.7;;;;-82
2022/07/17 10:25:31;;;;;;;;;;;;;;;33.54;26.63184;102852.5;;;;-82
2022/07/17 10:30:32;;;;;;;;;;;;;;;33.8;26.86035;102851.9;;;;-82
2022/07/17 10:35:35;;;;;;;;;;;;;;;33.98;26.34961;102859.3;;;;-82
2022/07/17 10:40:28;;;;;;;;;;;;;;;34.04;26.34082;102860.6;;;;-82
2022/07/17 10:45:33;;;;;;;;;;;;;;;34.17;26.51465;102857.4;;;;-82
2022/07/17 10:50:14;;;;;;;2.3;0.8;;;;;;;;;;;;;-81
2022/07/17 10:50:35;;;;;;;;;;;;;;;34.23;26.2334;102856.8;;;;-82
2022/07/17 10:55:27;;;;;;;;;;;;;;;34.31;26.46289;102864.5;;;;-81
2022/07/17 11:00:32;;;;;;;;;;;;;;;34.41;26.69434;102875.4;;;;-82
2022/07/17 11:05:31;;;;;;;;;;;;;;;34.53;27.45996;102877.5;;;;-82
2022/07/17 11:10:36;;;;;;;;;;;;;;;34.61;27.25195;102882.2;;;;-81
2022/07/17 11:15:29;;;;;;;;;;;;;;;34.69;27.62402;102884.9;;;;-81
2022/07/17 11:20:23;;;;;;;2.8;0.8;;;;;;;;;;;;;-83
2022/07/17 11:20:35;;;;;;;;;;;;;;;34.78;27.3916;102866.8;;;;-81
2022/07/17 11:30:39;;;;;;;;;;;;;;;34.92;27.30566;102868.9;;;;-83
2022/07/17 11:35:33;;;;;;;;;;;;;;;34.94;27.62793;102871.5;;;;-82
2022/07/17 11:40:39;;;;;;;;;;;;;;;35;27.69043;102861.6;;;;-83
2022/07/17 11:45:35;;;;;;;;;;;;;;;35.03;27.52539;102854.2;;;;-83
2022/07/17 11:50:35;;;;;;;2.9;0.9;;;;;;;;;;;;;-83
2022/07/17 11:50:56;;;;;;;;;;;;;;;34.98;27.53516;102831.4;;;;-82
2022/07/17 11:55:26;;;;;;;;;;;;;;;35.14;27.18848;102844.6;;;;-82
2022/07/17 12:00:29;;;;;;;;;;;;;;;35.21;27.12109;102837.6;;;;-82
2022/07/17 12:05:37;;;;;;;;;;;;;;;35.26;27.50391;102840.8;;;;-82
2022/07/17 12:10:39;;;;;;;;;;;;;;;35.25;27.55078;102836.8;;;;-82
2022/07/17 12:15:38;;;;;;;;;;;;;;;35.34;27.8418;102841.4;;;;-81
2022/07/17 12:20:31;;;;;;;;;;;;;;;35.45;27.80078;102841.2;;;;-83
2022/07/17 12:20:59;;;;;;;2.4;1.1;;;;;;;;;;;;;-83
2022/07/17 12:25:32;;;;;;;;;;;;;;;35.47;27.71875;102838.5;;;;-82
2022/07/17 12:30:30;;;;;;;;;;;;;;;35.51;27.64941;102829.7;;;;-81
2022/07/17 12:35:39;;;;;;;;;;;;;;;35.58;27.48828;102830.9;;;;-84
2022/07/17 12:40:35;;;;;;;;;;;;;;;35.69;27.875;102829.8;;;;-83
2022/07/17 12:45:27;;;;;;;;;;;;;;;35.78;27.72559;102817.4;;;;-83
2022/07/17 12:50:26;;;;;;;;;;;;;;;35.91;27.22266;102809.5;;;;-81
2022/07/17 12:50:42;;;;;;;2.1;1.3;;;;;;;;;;;;;-81
2022/07/17 12:55:40;;;;;;;;;;;;;;;36.04;27.31348;102800.4;;;;-81
2022/07/17 13:00:27;;;;;;;;;;;;;;;36.18;26.02344;102794.3;;;;-84
2022/07/17 13:05:30;;;;;;;;;;;;;;;36.09;26.80371;102791.3;;;;-83
2022/07/17 13:10:31;;;;;;;;;;;;;;;36.14;27.33105;102772.2;;;;-84
2022/07/17 13:15:40;;;;;;;;;;;;;;;36.22;26.91895;102770.9;;;;-82
2022/07/17 13:21:02;;;;;;;;;;;;;;;36.29;26.69629;102768.3;;;;-86
2022/07/17 13:21:24;;;;;;;;;;;;;;;36.54;26.48438;102765.7;;;;-76
2022/07/17 13:24:38;;;;;;;;;;;;;;;36.21;25.48926;102759.1;;;;-79
2022/07/17 13:29:38;;;;;;;;;;;;;;;36.23;26.78809;102749.4;;;;-80
2022/07/17 13:34:38;;;;;;;;;;;;;;;36.29;26.48242;102750.6;;;;-78
2022/07/17 13:39:38;;;;;;;;;;;;;;;36.39;26.46387;102754.4;;;;-78
2022/07/17 13:44:38;;;;;;;;;;;;;;;36.39;26.01172;102747.7;;;;-77
2022/07/17 13:49:39;;;;;;;;;;;;;;;36.48;26.2666;102760;;;;-76
2022/07/17 13:50:48;;;;;;;2.3;1.4;;;;;;;;;;;;;-79
2022/07/17 13:54:38;;;;;;;;;;;;;;;36.47;26.20605;102769.3;;;;-76
2022/07/17 13:59:38;;;;;;;;;;;;;;;36.48;25.90918;102765;;;;-76
2022/07/17 14:04:38;;;;;;;;;;;;;;;36.47;26.38477;102757.9;;;;-78
2022/07/17 14:09:38;;;;;;;;;;;;;;;36.41;26.06055;102761;;;;-78
2022/07/17 14:14:38;;;;;;;;;;;;;;;36.39;26.44043;102755.5;;;;-75
2022/07/17 14:19:38;;;;;;;;;;;;;;;36.39;26.07129;102758.4;;;;-76
2022/07/17 14:20:53;;;;;;;4.2;1.7;;;;;;;;;;;;;-77
2022/07/17 14:24:38;;;;;;;;;;;;;;;36.45;25.15625;102755.6;;;;-78
2022/07/17 14:29:38;;;;;;;;;;;;;;;36.4;25.32031;102751.7;;;;-78
2022/07/17 14:34:38;;;;;;;;;;;;;;;36.22;25.81152;102750.2;;;;-76
2022/07/17 14:39:38;;;;;;;;;;;;;;;36.06;25.60059;102740.4;;;;-77
2022/07/17 14:44:39;;;;;;;;;;;;;;;35.9;25.61523;102732.4;;;;-77
2022/07/17 14:49:38;;;;;;;;;;;;;;;35.78;25.27539;102728.8;;;;-77
2022/07/17 14:50:59;;;;;;;3.3;2.1;;;;;;;;;;;;;-76
2022/07/17 14:54:40;;;;;;;;;;;;;;;35.63;25.61133;102724.1;;;;-76
2022/07/17 14:59:38;;;;;;;;;;;;;;;35.54;25.71387;102715.5;;;;-78
2022/07/17 15:04:38;;;;;;;;;;;;;;;35.55;25.26172;102708.8;;;;-76
2022/07/17 15:09:38;;;;;;;;;;;;;;;35.58;25.37109;102707.2;;;;-77
2022/07/17 15:14:38;;;;;;;;;;;;;;;35.59;25.07324;102702.3;;;;-75
2022/07/17 15:19:38;;;;;;;;;;;;;;;35.55;25.26172;102700;;;;-76
2022/07/17 15:21:05;;;;;;;3.1;2.3;;;;;;;;;;;;;-76
2022/07/17 15:24:38;;;;;;;;;;;;;;;35.45;25.33984;102692.9;;;;-76
2022/07/17 15:29:38;;;;;;;;;;;;;;;35.37;24.84766;102683;;;;-78
2022/07/17 15:34:38;;;;;;;;;;;;;;;35.35;24.7041;102674.8;;;;-76
2022/07/17 15:39:38;;;;;;;;;;;;;;;35.31;24.74902;102666.9;;;;-78
2022/07/17 15:44:38;;;;;;;;;;;;;;;35.27;24.77148;102665.4;;;;-77
2022/07/17 15:49:38;;;;;;;;;;;;;;;35.18;24.65918;102662;;;;-75
2022/07/17 15:51:11;;;;;;;4.1;2.9;;;;;;;;;;;;;-77
2022/07/17 15:54:38;;;;;;;;;;;;;;;35.1;25.07129;102669.5;;;;-74
2022/07/17 15:59:38;;;;;;;;;;;;;;;35.05;24.67578;102667.4;;;;-78
2022/07/17 16:04:38;;;;;;;;;;;;;;;34.96;24.32715;102645.4;;;;-80
2022/07/17 16:09:38;;;;;;;;;;;;;;;34.84;24.26074;102627.3;;;;-78
2022/07/17 16:14:38;;;;;;;;;;;;;;;34.64;24.51172;102625.3;;;;-77
2022/07/17 16:19:38;;;;;;;;;;;;;;;34.41;24.29688;102615.3;;;;-80
2022/07/17 16:21:16;;;;;;;4.8;3.5;;;;;;;;;;;;;-77
2022/07/17 16:24:38;;;;;;;;;;;;;;;34.16;24.93652;102621.3;;;;-78
2022/07/17 16:29:38;;;;;;;;;;;;;;;33.91;25.31445;102630;;;;-77
2022/07/17 16:34:38;;;;;;;;;;;;;;;33.75;25.49512;102647.9;;;;-76
2022/07/17 16:39:38;;;;;;;;;;;;;;;33.64;25.58398;102652.1;;;;-78
2022/07/17 16:44:40;;;;;;;;;;;;;;;33.58;25.52051;102633.1;;;;-77
2022/07/17 16:49:38;;;;;;;;;;;;;;;33.44;25.09863;102601.4;;;;-76
2022/07/17 16:51:22;;;;;;;5.7;3.6;;;;;;;;;;;;;-78
2022/07/17 16:54:39;;;;;;;;;;;;;;;33.23;24.9209;102578.3;;;;-76
2022/07/17 16:59:38;;;;;;;;;;;;;;;33;25.14551;102592.4;;;;-76
2022/07/17 17:04:38;;;;;;;;;;;;;;;32.77;25.44043;102609.7;;;;-77
2022/07/17 17:09:47;;;;;;;;;;;;;;;32.58;25.58301;102589.5;;;;-79
2022/07/17 17:14:38;;;;;;;;;;;;;;;32.41;25.99902;102592.9;;;;-77
2022/07/17 17:19:40;;;;;;;;;;;;;;;32.26;26.14355;102591.5;;;;-75
2022/07/17 17:21:29;;;;;;;5.9;3.9;;;;;;;;;;;;;-76
2022/07/17 17:24:37;;;;;;;;;;;;;;;32.09;26.11035;102587.8;;;;-76
2022/07/17 17:29:38;;;;;;;;;;;;;;;31.9;26.12305;102586.9;;;;-75
2022/07/17 17:34:38;;;;;;;;;;;;;;;31.71;26.68945;102576.2;;;;-77
2022/07/17 17:39:38;;;;;;;;;;;;;;;31.49;26.85449;102567.8;;;;-76
2022/07/17 17:44:38;;;;;;;;;;;;;;;31.29;27.19531;102559.5;;;;-76
2022/07/17 17:49:38;;;;;;;;;;;;;;;31.08;27.20703;102566.6;;;;-76
2022/07/17 17:51:34;;;;;;;6.1;4.1;;;;;;;;;;;;;-77
2022/07/17 17:54:37;;;;;;;;;;;;;;;30.86;27.37012;102555.2;;;;-76
2022/07/17 17:59:39;;;;;;;;;;;;;;;30.64;27.68555;102558.7;;;;-73
2022/07/17 18:04:40;;;;;;;;;;;;;;;30.43;27.95508;102555.2;;;;-73
2022/07/17 18:09:38;;;;;;;;;;;;;;;30.15;28.16016;102546.3;;;;-73
2022/07/17 18:14:38;;;;;;;;;;;;;;;29.92;28.3457;102538;;;;-77
2022/07/17 18:19:38;;;;;;;;;;;;;;;29.7;28.41406;102539.6;;;;-79
2022/07/17 18:21:37;;;;;;;4.6;3.3;;;;;;;;;;;;;-77
2022/07/17 18:24:38;;;;;;;;;;;;;;;29.48;28.44824;102533.7;;;;-77
2022/07/17 18:29:38;;;;;;;;;;;;;;;29.27;28.63379;102529.2;;;;-77
2022/07/17 18:34:38;;;;;;;;;;;;;;;29.07;28.85547;102522.4;;;;-78
2022/07/17 18:39:38;;;;;;;;;;;;;;;28.89;29.00781;102519.1;;;;-77
2022/07/17 18:44:40;;;;;;;;;;;;;;;28.7;29.26563;102520.7;;;;-77
2022/07/17 18:49:39;;;;;;;;;;;;;;;28.49;29.5791;102528.6;;;;-76
2022/07/17 18:51:45;;;;;;;4.8;3.2;;;;;;;;;;;;;-78
2022/07/17 18:54:38;;;;;;;;;;;;;;;28.29;29.51953;102530.5;;;;-77
2022/07/17 18:59:38;;;;;;;;;;;;;;;28.05;29.78418;102532.3;;;;-79
2022/07/17 19:04:38;;;;;;;;;;;;;;;27.79;30.02344;102533.7;;;;-77
2022/07/17 19:09:43;;;;;;;;;;;;;;;27.53;30.34473;102539;;;;-78
2022/07/17 19:14:39;;;;;;;;;;;;;;;27.23;30.75586;102530.4;;;;-77
2022/07/17 19:19:38;;;;;;;;;;;;;;;26.97;31.00684;102534.5;;;;-76
2022/07/17 19:21:46;;;;;;;5.1;3.2;;;;;;;;;;;;;-78
2022/07/17 19:24:38;;;;;;;;;;;;;;;26.71;31.1748;102528.3;;;;-77
2022/07/17 19:29:38;;;;;;;;;;;;;;;26.46;31.43652;102528.4;;;;-77
2022/07/17 19:34:38;;;;;;;;;;;;;;;26.19;31.83789;102521.8;;;;-78
2022/07/17 19:39:39;;;;;;;;;;;;;;;25.94;32.16797;102528;;;;-77
2022/07/17 19:44:38;;;;;;;;;;;;;;;25.72;32.36133;102533;;;;-78
2022/07/17 19:49:38;;;;;;;;;;;;;;;25.5;32.54297;102539.4;;;;-77
2022/07/17 19:51:50;;;;;;;5.4;3.5;;;;;;;;;;;;;-77
2022/07/17 19:54:38;;;;;;;;;;;;;;;25.29;32.81738;102546.2;;;;-77
2022/07/17 19:59:38;;;;;;;;;;;;;;;25.09;32.98828;102556.7;;;;-77
2022/07/17 20:04:38;;;;;;;;;;;;;;;24.87;33.28516;102563;;;;-78
2022/07/17 20:09:38;;;;;;;;;;;;;;;24.67;33.50195;102576;;;;-78
2022/07/17 20:14:38;;;;;;;;;;;;;;;24.47;33.70703;102583.2;;;;-77
2022/07/17 20:19:38;;;;;;;;;;;;;;;24.27;33.94727;102583.7;;;;-77
2022/07/17 20:21:53;;;;;;;4.8;3.4;;;;;;;;;;;;;-78
2022/07/17 20:24:39;;;;;;;;;;;;;;;24.08;34.1875;102587.5;;;;-76
2022/07/17 20:29:38;;;;;;;;;;;;;;;23.9;34.46289;102590.1;;;;-77
2022/07/17 20:34:38;;;;;;;;;;;;;;;23.73;34.68066;102587.3;;;;-78
2022/07/17 20:39:38;;;;;;;;;;;;;;;23.55;34.83984;102584.2;;;;-78
2022/07/17 20:44:37;;;;;;;;;;;;;;;23.39;35.01172;102579.8;;;;-77
2022/07/17 20:49:38;;;;;;;;;;;;;;;23.23;35.28809;102575.4;;;;-77
2022/07/17 20:51:57;;;;;;;6;3.7;;;;;;;;;;;;;-76
2022/07/17 20:54:38;;;;;;;;;;;;;;;23.06;35.49414;102578.5;;;;-77
2022/07/17 20:59:38;;;;;;;;;;;;;;;22.91;35.80469;102578.6;;;;-77
2022/07/17 21:04:38;;;;;;;;;;;;;;;22.76;36.05762;102582.7;;;;-77
2022/07/17 21:09:38;;;;;;;;;;;;;;;22.59;36.58496;102582.5;;;;-77
2022/07/17 21:14:40;;;;;;;;;;;;;;;22.45;36.68945;102579.5;;;;-77
2022/07/17 21:19:38;;;;;;;;;;;;;;;22.27;36.99707;102577.3;;;;-77
2022/07/17 21:22:00;;;;;;;7.8;4;;;;;;;;;;;;;-76
2022/07/17 21:24:38;;;;;;;;;;;;;;;22.14;37.2627;102586.5;;;;-78
2022/07/17 21:29:38;;;;;;;;;;;;;;;21.98;37.42188;102580.9;;;;-77
2022/07/17 21:34:38;;;;;;;;;;;;;;;21.84;37.61621;102581.2;;;;-77
2022/07/17 21:39:38;;;;;;;;;;;;;;;21.7;37.75488;102580.1;;;;-77
2022/07/17 21:44:38;;;;;;;;;;;;;;;21.58;38.05371;102580.9;;;;-77
2022/07/17 21:49:38;;;;;;;;;;;;;;;21.45;38.18164;102581;;;;-77
2022/07/17 21:52:03;;;;;;;7;4.1;;;;;;;;;;;;;-77
2022/07/17 21:54:38;;;;;;;;;;;;;;;21.36;38.27637;102575.4;;;;-76
2022/07/17 21:59:38;;;;;;;;;;;;;;;21.25;38.2666;102571.2;;;;-77
2022/07/17 22:04:38;;;;;;;;;;;;;;;21.19;38.3877;102576;;;;-77
2022/07/17 22:09:38;;;;;;;;;;;;;;;21.12;38.58887;102569.3;;;;-77
2022/07/17 22:42:51;;;;;;;;;;;;;;;21.09;38.63184;102543.3;;;;-78
2022/07/17 22:52:30;;;;;;;7.1;3.9;;;;;;;;;;;;;-80
2022/07/17 22:53:21;;;;;;;;;;;;;;;20.48;39.55273;102529.2;;;;-81
2022/07/17 23:40:12;;;;;;;;;;;;;;;;;;;;;
